sensor_id;sensor_type;location;lat;lon;timestamp;P1;durP1;ratioP1;P2;durP2;ratioP2
4895;SDS011;2463;49.948;8.472;2023-07-13T00:00:10;96.60;;;5.50;;
4895;SDS011;2463;49.948;8.472;2023-07-13T00:02:37;88.60;;;4.40;;
4895;SDS011;2463;49.948;8.472;2023-07-13T00:05:05;87.70;;;4.17;;
4895;SDS011;2463;49.948;8.472;2023-07-13T00:07:32;88.70;;;4.40;;
4895;SDS011;2463;49.948;8.472;2023-07-13T00:10:00;88.07;;;4.23;;
4895;SDS011;2463;49.948;8.472;2023-07-13T00:12:35;89.50;;;4.30;;
4895;SDS011;2463;49.948;8.472;2023-07-13T00:15:04;90.20;;;4.90;;
4895;SDS011;2463;49.948;8.472;2023-07-13T00:17:39;90.10;;;4.60;;
4895;SDS011;2463;49.948;8.472;2023-07-13T00:20:06;94.87;;;4.70;;
4895;SDS011;2463;49.948;8.472;2023-07-13T00:22:34;89.63;;;4.40;;
4895;SDS011;2463;49.948;8.472;2023-07-13T00:25:01;89.20;;;4.20;;
4895;SDS011;2463;49.948;8.472;2023-07-13T00:27:28;92.80;;;4.30;;
4895;SDS011;2463;49.948;8.472;2023-07-13T00:29:58;90.27;;;4.47;;
4895;SDS011;2463;49.948;8.472;2023-07-13T00:32:24;89.57;;;4.53;;
4895;SDS011;2463;49.948;8.472;2023-07-13T00:34:52;88.87;;;4.43;;
4895;SDS011;2463;49.948;8.472;2023-07-13T00:37:18;91.90;;;4.93;;
4895;SDS011;2463;49.948;8.472;2023-07-13T00:39:45;88.83;;;4.53;;
4895;SDS011;2463;49.948;8.472;2023-07-13T00:42:12;90.50;;;4.80;;
4895;SDS011;2463;49.948;8.472;2023-07-13T00:44:39;92.83;;;4.80;;
4895;SDS011;2463;49.948;8.472;2023-07-13T00:47:06;89.30;;;4.40;;
4895;SDS011;2463;49.948;8.472;2023-07-13T00:49:33;90.77;;;4.20;;
4895;SDS011;2463;49.948;8.472;2023-07-13T00:52:04;89.07;;;4.30;;
4895;SDS011;2463;49.948;8.472;2023-07-13T00:54:37;89.43;;;4.50;;
4895;SDS011;2463;49.948;8.472;2023-07-13T00:57:11;89.57;;;4.40;;
4895;SDS011;2463;49.948;8.472;2023-07-13T00:59:42;89.28;;;4.68;;
4895;SDS011;2463;49.948;8.472;2023-07-13T01:02:12;89.00;;;4.30;;
4895;SDS011;2463;49.948;8.472;2023-07-13T01:04:39;89.77;;;4.57;;
4895;SDS011;2463;49.948;8.472;2023-07-13T01:07:06;90.70;;;4.83;;
4895;SDS011;2463;49.948;8.472;2023-07-13T01:09:33;91.27;;;4.47;;
4895;SDS011;2463;49.948;8.472;2023-07-13T01:12:00;92.70;;;5.87;;
4895;SDS011;2463;49.948;8.472;2023-07-13T01:14:26;89.30;;;4.43;;
4895;SDS011;2463;49.948;8.472;2023-07-13T01:16:53;90.50;;;5.10;;
4895;SDS011;2463;49.948;8.472;2023-07-13T01:22:10;90.37;;;4.60;;
4895;SDS011;2463;49.948;8.472;2023-07-13T01:24:44;89.13;;;4.60;;
4895;SDS011;2463;49.948;8.472;2023-07-13T01:27:13;91.73;;;4.90;;
4895;SDS011;2463;49.948;8.472;2023-07-13T01:29:43;89.50;;;4.87;;
4895;SDS011;2463;49.948;8.472;2023-07-13T01:32:11;93.37;;;5.07;;
4895;SDS011;2463;49.948;8.472;2023-07-13T01:34:40;108.63;;;7.25;;
4895;SDS011;2463;49.948;8.472;2023-07-13T01:37:09;95.90;;;5.10;;
4895;SDS011;2463;49.948;8.472;2023-07-13T01:39:36;93.23;;;5.30;;
4895;SDS011;2463;49.948;8.472;2023-07-13T01:42:03;90.97;;;4.93;;
4895;SDS011;2463;49.948;8.472;2023-07-13T01:44:31;90.93;;;5.00;;
4895;SDS011;2463;49.948;8.472;2023-07-13T01:46:58;91.83;;;4.80;;
4895;SDS011;2463;49.948;8.472;2023-07-13T01:49:25;90.90;;;4.78;;
4895;SDS011;2463;49.948;8.472;2023-07-13T01:51:52;92.90;;;5.37;;
4895;SDS011;2463;49.948;8.472;2023-07-13T01:54:18;93.95;;;4.70;;
4895;SDS011;2463;49.948;8.472;2023-07-13T01:56:45;92.43;;;5.18;;
4895;SDS011;2463;49.948;8.472;2023-07-13T01:59:12;94.15;;;4.90;;
4895;SDS011;2463;49.948;8.472;2023-07-13T02:01:39;91.80;;;4.70;;
4895;SDS011;2463;49.948;8.472;2023-07-13T02:04:06;91.22;;;5.10;;
4895;SDS011;2463;49.948;8.472;2023-07-13T02:06:32;92.10;;;5.30;;
4895;SDS011;2463;49.948;8.472;2023-07-13T02:08:59;91.75;;;5.00;;
4895;SDS011;2463;49.948;8.472;2023-07-13T02:11:26;94.17;;;5.03;;
4895;SDS011;2463;49.948;8.472;2023-07-13T02:13:59;91.25;;;5.13;;
4895;SDS011;2463;49.948;8.472;2023-07-13T02:16:28;92.18;;;5.03;;
4895;SDS011;2463;49.948;8.472;2023-07-13T02:18:55;91.13;;;4.85;;
4895;SDS011;2463;49.948;8.472;2023-07-13T02:21:23;90.97;;;5.07;;
4895;SDS011;2463;49.948;8.472;2023-07-13T02:23:50;91.07;;;5.30;;
4895;SDS011;2463;49.948;8.472;2023-07-13T02:26:16;93.07;;;5.20;;
4895;SDS011;2463;49.948;8.472;2023-07-13T02:28:44;90.13;;;4.65;;
4895;SDS011;2463;49.948;8.472;2023-07-13T02:31:11;92.30;;;5.30;;
4895;SDS011;2463;49.948;8.472;2023-07-13T02:33:40;91.35;;;4.72;;
4895;SDS011;2463;49.948;8.472;2023-07-13T02:36:07;91.20;;;4.70;;
4895;SDS011;2463;49.948;8.472;2023-07-13T02:38:35;91.07;;;5.30;;
4895;SDS011;2463;49.948;8.472;2023-07-13T02:41:03;95.25;;;5.68;;
4895;SDS011;2463;49.948;8.472;2023-07-13T02:43:31;93.60;;;5.17;;
4895;SDS011;2463;49.948;8.472;2023-07-13T02:45:59;93.78;;;4.95;;
4895;SDS011;2463;49.948;8.472;2023-07-13T02:48:30;92.25;;;5.07;;
4895;SDS011;2463;49.948;8.472;2023-07-13T02:50:57;93.65;;;5.28;;
4895;SDS011;2463;49.948;8.472;2023-07-13T02:53:23;91.90;;;4.93;;
4895;SDS011;2463;49.948;8.472;2023-07-13T02:55:50;97.18;;;5.20;;
4895;SDS011;2463;49.948;8.472;2023-07-13T02:58:17;90.80;;;5.37;;
4895;SDS011;2463;49.948;8.472;2023-07-13T03:00:44;91.43;;;5.13;;
4895;SDS011;2463;49.948;8.472;2023-07-13T03:03:13;90.97;;;4.82;;
4895;SDS011;2463;49.948;8.472;2023-07-13T03:05:41;92.05;;;5.25;;
4895;SDS011;2463;49.948;8.472;2023-07-13T03:08:09;92.43;;;5.20;;
4895;SDS011;2463;49.948;8.472;2023-07-13T03:10:36;93.70;;;5.65;;
4895;SDS011;2463;49.948;8.472;2023-07-13T03:13:03;98.40;;;5.57;;
4895;SDS011;2463;49.948;8.472;2023-07-13T03:15:30;92.60;;;5.22;;
4895;SDS011;2463;49.948;8.472;2023-07-13T03:17:57;91.63;;;5.68;;
4895;SDS011;2463;49.948;8.472;2023-07-13T03:20:23;91.55;;;5.18;;
4895;SDS011;2463;49.948;8.472;2023-07-13T03:22:50;92.60;;;5.70;;
4895;SDS011;2463;49.948;8.472;2023-07-13T03:25:17;96.43;;;5.70;;
4895;SDS011;2463;49.948;8.472;2023-07-13T03:27:44;97.20;;;5.38;;
4895;SDS011;2463;49.948;8.472;2023-07-13T03:30:10;92.10;;;5.05;;
4895;SDS011;2463;49.948;8.472;2023-07-13T03:32:38;91.25;;;5.20;;
4895;SDS011;2463;49.948;8.472;2023-07-13T03:35:04;92.88;;;5.40;;
4895;SDS011;2463;49.948;8.472;2023-07-13T03:37:31;92.88;;;5.25;;
4895;SDS011;2463;49.948;8.472;2023-07-13T03:39:58;96.88;;;5.07;;
4895;SDS011;2463;49.948;8.472;2023-07-13T03:42:25;94.00;;;5.78;;
4895;SDS011;2463;49.948;8.472;2023-07-13T03:44:52;93.72;;;5.72;;
4895;SDS011;2463;49.948;8.472;2023-07-13T03:47:18;96.63;;;6.07;;
4895;SDS011;2463;49.948;8.472;2023-07-13T03:49:45;92.85;;;5.32;;
4895;SDS011;2463;49.948;8.472;2023-07-13T03:52:12;95.97;;;5.15;;
4895;SDS011;2463;49.948;8.472;2023-07-13T03:54:39;92.95;;;5.18;;
4895;SDS011;2463;49.948;8.472;2023-07-13T03:57:06;95.18;;;5.10;;
4895;SDS011;2463;49.948;8.472;2023-07-13T03:59:32;92.60;;;5.20;;
4895;SDS011;2463;49.948;8.472;2023-07-13T04:02:00;94.32;;;5.40;;
4895;SDS011;2463;49.948;8.472;2023-07-13T04:04:27;91.82;;;5.50;;
4895;SDS011;2463;49.948;8.472;2023-07-13T04:06:54;95.47;;;5.70;;
4895;SDS011;2463;49.948;8.472;2023-07-13T04:09:21;94.57;;;6.03;;
4895;SDS011;2463;49.948;8.472;2023-07-13T04:11:48;92.38;;;5.63;;
4895;SDS011;2463;49.948;8.472;2023-07-13T04:14:14;92.55;;;5.50;;
4895;SDS011;2463;49.948;8.472;2023-07-13T04:16:42;91.68;;;5.25;;
4895;SDS011;2463;49.948;8.472;2023-07-13T04:19:09;92.95;;;5.45;;
4895;SDS011;2463;49.948;8.472;2023-07-13T04:21:36;94.22;;;5.43;;
4895;SDS011;2463;49.948;8.472;2023-07-13T04:24:03;94.68;;;6.10;;
4895;SDS011;2463;49.948;8.472;2023-07-13T04:26:30;96.30;;;5.60;;
4895;SDS011;2463;49.948;8.472;2023-07-13T04:28:57;92.88;;;5.68;;
4895;SDS011;2463;49.948;8.472;2023-07-13T04:31:24;97.00;;;6.00;;
4895;SDS011;2463;49.948;8.472;2023-07-13T04:33:51;95.07;;;5.88;;
4895;SDS011;2463;49.948;8.472;2023-07-13T04:36:17;95.55;;;6.13;;
4895;SDS011;2463;49.948;8.472;2023-07-13T04:38:44;92.85;;;5.80;;
4895;SDS011;2463;49.948;8.472;2023-07-13T04:41:11;92.55;;;5.82;;
4895;SDS011;2463;49.948;8.472;2023-07-13T04:43:39;95.80;;;5.60;;
4895;SDS011;2463;49.948;8.472;2023-07-13T04:46:10;96.97;;;5.57;;
4895;SDS011;2463;49.948;8.472;2023-07-13T04:48:39;91.50;;;5.65;;
4895;SDS011;2463;49.948;8.472;2023-07-13T04:51:06;94.00;;;5.35;;
4895;SDS011;2463;49.948;8.472;2023-07-13T04:53:32;92.88;;;5.30;;
4895;SDS011;2463;49.948;8.472;2023-07-13T04:56:00;94.45;;;5.82;;
4895;SDS011;2463;49.948;8.472;2023-07-13T04:58:28;93.55;;;5.40;;
4895;SDS011;2463;49.948;8.472;2023-07-13T05:01:04;93.70;;;5.55;;
4895;SDS011;2463;49.948;8.472;2023-07-13T05:03:32;93.18;;;5.65;;
4895;SDS011;2463;49.948;8.472;2023-07-13T05:06:02;91.22;;;4.95;;
4895;SDS011;2463;49.948;8.472;2023-07-13T05:08:30;91.05;;;5.00;;
4895;SDS011;2463;49.948;8.472;2023-07-13T05:10:58;91.28;;;5.40;;
4895;SDS011;2463;49.948;8.472;2023-07-13T05:13:26;92.47;;;5.10;;
4895;SDS011;2463;49.948;8.472;2023-07-13T05:15:56;94.07;;;5.35;;
4895;SDS011;2463;49.948;8.472;2023-07-13T05:18:24;94.35;;;5.30;;
4895;SDS011;2463;49.948;8.472;2023-07-13T05:20:59;90.25;;;4.80;;
4895;SDS011;2463;49.948;8.472;2023-07-13T05:23:34;96.18;;;5.00;;
4895;SDS011;2463;49.948;8.472;2023-07-13T05:26:02;92.88;;;5.20;;
4895;SDS011;2463;49.948;8.472;2023-07-13T05:28:33;90.93;;;5.00;;
4895;SDS011;2463;49.948;8.472;2023-07-13T05:31:00;91.30;;;5.30;;
4895;SDS011;2463;49.948;8.472;2023-07-13T05:33:27;91.10;;;5.25;;
4895;SDS011;2463;49.948;8.472;2023-07-13T05:35:54;94.25;;;5.15;;
4895;SDS011;2463;49.948;8.472;2023-07-13T05:38:21;91.22;;;5.00;;
4895;SDS011;2463;49.948;8.472;2023-07-13T05:40:47;93.13;;;5.60;;
4895;SDS011;2463;49.948;8.472;2023-07-13T05:43:14;99.63;;;5.47;;
4895;SDS011;2463;49.948;8.472;2023-07-13T05:45:41;91.47;;;4.95;;
4895;SDS011;2463;49.948;8.472;2023-07-13T05:48:08;90.38;;;4.85;;
4895;SDS011;2463;49.948;8.472;2023-07-13T05:50:35;91.15;;;4.53;;
4895;SDS011;2463;49.948;8.472;2023-07-13T05:53:01;90.13;;;5.13;;
4895;SDS011;2463;49.948;8.472;2023-07-13T05:55:28;91.20;;;4.32;;
4895;SDS011;2463;49.948;8.472;2023-07-13T05:57:55;90.20;;;4.40;;
4895;SDS011;2463;49.948;8.472;2023-07-13T06:00:24;90.37;;;3.97;;
4895;SDS011;2463;49.948;8.472;2023-07-13T06:02:51;90.88;;;4.32;;
4895;SDS011;2463;49.948;8.472;2023-07-13T06:05:18;88.55;;;4.22;;
4895;SDS011;2463;49.948;8.472;2023-07-13T06:07:45;88.27;;;4.37;;
4895;SDS011;2463;49.948;8.472;2023-07-13T06:10:12;91.13;;;4.60;;
4895;SDS011;2463;49.948;8.472;2023-07-13T06:12:38;93.03;;;4.33;;
4895;SDS011;2463;49.948;8.472;2023-07-13T06:15:05;93.57;;;4.20;;
4895;SDS011;2463;49.948;8.472;2023-07-13T06:17:32;88.00;;;3.63;;
4895;SDS011;2463;49.948;8.472;2023-07-13T06:19:59;92.50;;;4.00;;
4895;SDS011;2463;49.948;8.472;2023-07-13T06:22:26;87.80;;;3.77;;
4895;SDS011;2463;49.948;8.472;2023-07-13T06:24:53;88.77;;;4.00;;
4895;SDS011;2463;49.948;8.472;2023-07-13T06:27:20;88.37;;;3.70;;
4895;SDS011;2463;49.948;8.472;2023-07-13T06:29:46;87.53;;;3.57;;
4895;SDS011;2463;49.948;8.472;2023-07-13T06:32:13;89.40;;;4.50;;
4895;SDS011;2463;49.948;8.472;2023-07-13T06:34:40;89.40;;;3.90;;
4895;SDS011;2463;49.948;8.472;2023-07-13T06:37:08;86.30;;;3.50;;
4895;SDS011;2463;49.948;8.472;2023-07-13T06:39:35;89.40;;;3.70;;
4895;SDS011;2463;49.948;8.472;2023-07-13T06:42:02;83.57;;;3.10;;
4895;SDS011;2463;49.948;8.472;2023-07-13T06:44:29;84.27;;;3.30;;
4895;SDS011;2463;49.948;8.472;2023-07-13T06:46:56;85.73;;;3.17;;
4895;SDS011;2463;49.948;8.472;2023-07-13T06:49:23;81.10;;;2.70;;
4895;SDS011;2463;49.948;8.472;2023-07-13T06:51:49;79.87;;;2.53;;
4895;SDS011;2463;49.948;8.472;2023-07-13T06:54:16;77.90;;;2.23;;
4895;SDS011;2463;49.948;8.472;2023-07-13T06:56:43;82.87;;;2.77;;
4895;SDS011;2463;49.948;8.472;2023-07-13T06:59:09;81.00;;;2.40;;
4895;SDS011;2463;49.948;8.472;2023-07-13T07:01:36;80.40;;;2.43;;
4895;SDS011;2463;49.948;8.472;2023-07-13T07:04:06;78.47;;;2.30;;
4895;SDS011;2463;49.948;8.472;2023-07-13T07:06:33;79.30;;;2.40;;
4895;SDS011;2463;49.948;8.472;2023-07-13T07:09:00;78.67;;;2.30;;
4895;SDS011;2463;49.948;8.472;2023-07-13T07:11:27;79.00;;;2.00;;
4895;SDS011;2463;49.948;8.472;2023-07-13T07:13:54;77.50;;;2.67;;
4895;SDS011;2463;49.948;8.472;2023-07-13T07:16:21;76.10;;;2.00;;
4895;SDS011;2463;49.948;8.472;2023-07-13T07:18:51;78.40;;;2.30;;
4895;SDS011;2463;49.948;8.472;2023-07-13T07:21:17;76.80;;;2.03;;
4895;SDS011;2463;49.948;8.472;2023-07-13T07:23:45;77.40;;;2.27;;
4895;SDS011;2463;49.948;8.472;2023-07-13T07:26:12;78.57;;;2.47;;
4895;SDS011;2463;49.948;8.472;2023-07-13T07:28:39;78.80;;;2.20;;
4895;SDS011;2463;49.948;8.472;2023-07-13T07:31:09;77.30;;;2.37;;
4895;SDS011;2463;49.948;8.472;2023-07-13T07:33:39;79.10;;;2.70;;
4895;SDS011;2463;49.948;8.472;2023-07-13T07:36:06;80.40;;;2.83;;
4895;SDS011;2463;49.948;8.472;2023-07-13T07:38:35;79.00;;;2.70;;
4895;SDS011;2463;49.948;8.472;2023-07-13T07:41:03;86.00;;;2.70;;
4895;SDS011;2463;49.948;8.472;2023-07-13T07:43:33;81.13;;;2.50;;
4895;SDS011;2463;49.948;8.472;2023-07-13T07:46:01;79.70;;;2.50;;
4895;SDS011;2463;49.948;8.472;2023-07-13T07:48:29;81.97;;;3.10;;
4895;SDS011;2463;49.948;8.472;2023-07-13T07:50:56;81.17;;;2.70;;
4895;SDS011;2463;49.948;8.472;2023-07-13T07:53:23;81.37;;;2.77;;
4895;SDS011;2463;49.948;8.472;2023-07-13T07:55:50;81.93;;;3.17;;
4895;SDS011;2463;49.948;8.472;2023-07-13T07:58:20;82.53;;;2.83;;
4895;SDS011;2463;49.948;8.472;2023-07-13T08:00:50;82.40;;;2.80;;
4895;SDS011;2463;49.948;8.472;2023-07-13T08:03:19;83.90;;;2.90;;
4895;SDS011;2463;49.948;8.472;2023-07-13T08:05:52;83.87;;;3.13;;
4895;SDS011;2463;49.948;8.472;2023-07-13T08:08:22;84.80;;;2.93;;
4895;SDS011;2463;49.948;8.472;2023-07-13T08:10:48;80.30;;;2.70;;
4895;SDS011;2463;49.948;8.472;2023-07-13T08:13:15;80.17;;;2.70;;
4895;SDS011;2463;49.948;8.472;2023-07-13T08:15:42;81.97;;;3.00;;
4895;SDS011;2463;49.948;8.472;2023-07-13T08:18:09;81.70;;;2.80;;
4895;SDS011;2463;49.948;8.472;2023-07-13T08:20:36;81.13;;;3.10;;
4895;SDS011;2463;49.948;8.472;2023-07-13T08:23:04;80.53;;;2.67;;
4895;SDS011;2463;49.948;8.472;2023-07-13T08:25:32;81.07;;;2.83;;
4895;SDS011;2463;49.948;8.472;2023-07-13T08:27:58;81.77;;;2.90;;
4895;SDS011;2463;49.948;8.472;2023-07-13T08:30:25;82.77;;;2.80;;
4895;SDS011;2463;49.948;8.472;2023-07-13T08:32:53;79.40;;;3.13;;
4895;SDS011;2463;49.948;8.472;2023-07-13T08:35:19;81.83;;;3.00;;
4895;SDS011;2463;49.948;8.472;2023-07-13T08:37:46;81.20;;;3.03;;
4895;SDS011;2463;49.948;8.472;2023-07-13T08:40:13;83.67;;;2.93;;
4895;SDS011;2463;49.948;8.472;2023-07-13T08:42:42;81.77;;;2.80;;
4895;SDS011;2463;49.948;8.472;2023-07-13T08:45:30;79.90;;;2.70;;
4895;SDS011;2463;49.948;8.472;2023-07-13T08:50:56;84.47;;;3.17;;
4895;SDS011;2463;49.948;8.472;2023-07-13T08:53:34;88.53;;;2.83;;
4895;SDS011;2463;49.948;8.472;2023-07-13T08:56:11;86.50;;;2.67;;
4895;SDS011;2463;49.948;8.472;2023-07-13T08:58:58;84.90;;;3.10;;
4895;SDS011;2463;49.948;8.472;2023-07-13T09:01:45;82.43;;;2.97;;
4895;SDS011;2463;49.948;8.472;2023-07-13T09:04:23;88.53;;;3.30;;
4895;SDS011;2463;49.948;8.472;2023-07-13T09:12:02;80.93;;;2.70;;
4895;SDS011;2463;49.948;8.472;2023-07-13T09:14:40;81.27;;;2.50;;
4895;SDS011;2463;49.948;8.472;2023-07-13T09:17:11;80.47;;;2.70;;
4895;SDS011;2463;49.948;8.472;2023-07-13T09:19:41;82.10;;;2.70;;
4895;SDS011;2463;49.948;8.472;2023-07-13T09:22:13;80.37;;;2.57;;
4895;SDS011;2463;49.948;8.472;2023-07-13T09:24:57;81.03;;;2.60;;
4895;SDS011;2463;49.948;8.472;2023-07-13T09:27:30;81.77;;;2.50;;
4895;SDS011;2463;49.948;8.472;2023-07-13T09:30:21;85.20;;;2.70;;
4895;SDS011;2463;49.948;8.472;2023-07-13T09:32:53;81.07;;;2.83;;
4895;SDS011;2463;49.948;8.472;2023-07-13T09:35:21;83.50;;;2.50;;
4895;SDS011;2463;49.948;8.472;2023-07-13T09:37:50;80.57;;;2.60;;
4895;SDS011;2463;49.948;8.472;2023-07-13T09:40:21;79.03;;;2.50;;
4895;SDS011;2463;49.948;8.472;2023-07-13T09:43:02;82.43;;;2.40;;
4895;SDS011;2463;49.948;8.472;2023-07-13T09:45:33;81.60;;;2.53;;
4895;SDS011;2463;49.948;8.472;2023-07-13T09:48:05;80.40;;;2.63;;
4895;SDS011;2463;49.948;8.472;2023-07-13T09:50:34;81.77;;;2.60;;
4895;SDS011;2463;49.948;8.472;2023-07-13T09:53:01;79.40;;;2.80;;
4895;SDS011;2463;49.948;8.472;2023-07-13T09:55:35;79.13;;;2.60;;
4895;SDS011;2463;49.948;8.472;2023-07-13T09:58:05;79.80;;;2.57;;
4895;SDS011;2463;49.948;8.472;2023-07-13T10:00:38;79.70;;;2.53;;
4895;SDS011;2463;49.948;8.472;2023-07-13T10:06:11;79.87;;;2.47;;
4895;SDS011;2463;49.948;8.472;2023-07-13T10:08:38;80.03;;;2.80;;
4895;SDS011;2463;49.948;8.472;2023-07-13T10:11:09;80.37;;;2.50;;
4895;SDS011;2463;49.948;8.472;2023-07-13T10:13:55;80.90;;;2.67;;
4895;SDS011;2463;49.948;8.472;2023-07-13T10:16:27;78.90;;;2.60;;
4895;SDS011;2463;49.948;8.472;2023-07-13T10:18:59;80.10;;;2.60;;
4895;SDS011;2463;49.948;8.472;2023-07-13T10:21:50;79.43;;;2.33;;
4895;SDS011;2463;49.948;8.472;2023-07-13T10:24:20;79.57;;;2.70;;
4895;SDS011;2463;49.948;8.472;2023-07-13T10:29:42;79.50;;;2.50;;
4895;SDS011;2463;49.948;8.472;2023-07-13T10:32:14;80.27;;;2.70;;
4895;SDS011;2463;49.948;8.472;2023-07-13T10:34:42;80.20;;;2.50;;
4895;SDS011;2463;49.948;8.472;2023-07-13T10:37:28;79.20;;;2.60;;
4895;SDS011;2463;49.948;8.472;2023-07-13T10:40:19;79.67;;;2.50;;
4895;SDS011;2463;49.948;8.472;2023-07-13T10:43:14;81.37;;;2.70;;
4895;SDS011;2463;49.948;8.472;2023-07-13T10:45:45;79.80;;;2.60;;
4895;SDS011;2463;49.948;8.472;2023-07-13T10:48:16;78.63;;;2.70;;
4895;SDS011;2463;49.948;8.472;2023-07-13T10:50:44;79.27;;;2.50;;
4895;SDS011;2463;49.948;8.472;2023-07-13T10:53:20;80.00;;;2.60;;
4895;SDS011;2463;49.948;8.472;2023-07-13T10:56:28;78.67;;;2.50;;
4895;SDS011;2463;49.948;8.472;2023-07-13T10:59:05;81.67;;;2.80;;
4895;SDS011;2463;49.948;8.472;2023-07-13T11:04:29;78.30;;;2.57;;
4895;SDS011;2463;49.948;8.472;2023-07-13T11:07:18;79.67;;;2.70;;
4895;SDS011;2463;49.948;8.472;2023-07-13T11:09:57;79.57;;;2.77;;
4895;SDS011;2463;49.948;8.472;2023-07-13T11:12:27;78.03;;;2.70;;
4895;SDS011;2463;49.948;8.472;2023-07-13T11:15:14;80.40;;;3.13;;
4895;SDS011;2463;49.948;8.472;2023-07-13T11:17:55;79.90;;;2.63;;
4895;SDS011;2463;49.948;8.472;2023-07-13T11:20:34;78.77;;;2.40;;
4895;SDS011;2463;49.948;8.472;2023-07-13T11:23:07;80.87;;;2.60;;
4895;SDS011;2463;49.948;8.472;2023-07-13T11:25:35;80.03;;;2.60;;
4895;SDS011;2463;49.948;8.472;2023-07-13T11:28:05;83.00;;;2.60;;
4895;SDS011;2463;49.948;8.472;2023-07-13T11:30:39;81.90;;;2.70;;
4895;SDS011;2463;49.948;8.472;2023-07-13T11:33:20;79.50;;;2.80;;
4895;SDS011;2463;49.948;8.472;2023-07-13T11:35:57;79.80;;;2.53;;
4895;SDS011;2463;49.948;8.472;2023-07-13T11:40:58;80.63;;;2.50;;
4895;SDS011;2463;49.948;8.472;2023-07-13T11:43:29;80.10;;;2.73;;
4895;SDS011;2463;49.948;8.472;2023-07-13T11:45:56;78.77;;;2.50;;
4895;SDS011;2463;49.948;8.472;2023-07-13T11:48:28;80.17;;;2.70;;
4895;SDS011;2463;49.948;8.472;2023-07-13T11:51:02;81.80;;;2.80;;
4895;SDS011;2463;49.948;8.472;2023-07-13T11:53:38;79.70;;;2.87;;
4895;SDS011;2463;49.948;8.472;2023-07-13T11:56:07;79.30;;;2.70;;
4895;SDS011;2463;49.948;8.472;2023-07-13T11:58:34;80.00;;;2.70;;
4895;SDS011;2463;49.948;8.472;2023-07-13T12:01:01;80.50;;;2.80;;
4895;SDS011;2463;49.948;8.472;2023-07-13T12:03:31;80.17;;;2.80;;
4895;SDS011;2463;49.948;8.472;2023-07-13T12:06:04;81.47;;;3.03;;
4895;SDS011;2463;49.948;8.472;2023-07-13T12:08:49;80.77;;;3.07;;
4895;SDS011;2463;49.948;8.472;2023-07-13T12:11:16;79.80;;;2.80;;
4895;SDS011;2463;49.948;8.472;2023-07-13T12:13:44;80.13;;;2.93;;
4895;SDS011;2463;49.948;8.472;2023-07-13T12:16:14;81.50;;;2.70;;
4895;SDS011;2463;49.948;8.472;2023-07-13T12:18:59;79.80;;;2.60;;
4895;SDS011;2463;49.948;8.472;2023-07-13T12:21:31;80.60;;;3.00;;
4895;SDS011;2463;49.948;8.472;2023-07-13T12:24:11;80.93;;;2.70;;
4895;SDS011;2463;49.948;8.472;2023-07-13T12:26:41;78.97;;;2.80;;
4895;SDS011;2463;49.948;8.472;2023-07-13T12:29:10;80.67;;;2.80;;
4895;SDS011;2463;49.948;8.472;2023-07-13T12:31:43;79.77;;;2.50;;
4895;SDS011;2463;49.948;8.472;2023-07-13T12:34:14;81.23;;;3.00;;
4895;SDS011;2463;49.948;8.472;2023-07-13T12:36:49;84.00;;;3.10;;
4895;SDS011;2463;49.948;8.472;2023-07-13T12:39:38;80.90;;;2.80;;
4895;SDS011;2463;49.948;8.472;2023-07-13T12:44:56;79.47;;;2.67;;
4895;SDS011;2463;49.948;8.472;2023-07-13T12:47:39;81.90;;;2.83;;
4895;SDS011;2463;49.948;8.472;2023-07-13T12:50:12;81.87;;;2.73;;
4895;SDS011;2463;49.948;8.472;2023-07-13T12:52:49;80.60;;;3.00;;
4895;SDS011;2463;49.948;8.472;2023-07-13T12:55:19;80.17;;;3.00;;
4895;SDS011;2463;49.948;8.472;2023-07-13T12:57:56;81.57;;;2.83;;
4895;SDS011;2463;49.948;8.472;2023-07-13T13:03:04;80.60;;;2.87;;
4895;SDS011;2463;49.948;8.472;2023-07-13T13:05:49;84.00;;;3.07;;
4895;SDS011;2463;49.948;8.472;2023-07-13T13:08:23;81.20;;;2.97;;
4895;SDS011;2463;49.948;8.472;2023-07-13T13:10:50;84.40;;;3.40;;
4895;SDS011;2463;49.948;8.472;2023-07-13T13:13:16;82.90;;;3.00;;
4895;SDS011;2463;49.948;8.472;2023-07-13T13:15:43;84.50;;;3.53;;
4895;SDS011;2463;49.948;8.472;2023-07-13T13:18:17;82.40;;;3.00;;
4895;SDS011;2463;49.948;8.472;2023-07-13T13:20:46;81.27;;;2.97;;
4895;SDS011;2463;49.948;8.472;2023-07-13T13:23:14;81.00;;;2.80;;
4895;SDS011;2463;49.948;8.472;2023-07-13T13:25:45;82.70;;;3.13;;
4895;SDS011;2463;49.948;8.472;2023-07-13T13:28:14;82.40;;;2.80;;
4895;SDS011;2463;49.948;8.472;2023-07-13T13:30:43;80.77;;;2.90;;
4895;SDS011;2463;49.948;8.472;2023-07-13T13:33:10;85.43;;;3.30;;
4895;SDS011;2463;49.948;8.472;2023-07-13T13:35:38;81.50;;;2.90;;
4895;SDS011;2463;49.948;8.472;2023-07-13T13:38:10;81.67;;;2.97;;
4895;SDS011;2463;49.948;8.472;2023-07-13T13:40:41;83.70;;;2.90;;
4895;SDS011;2463;49.948;8.472;2023-07-13T13:43:32;94.43;;;3.27;;
4895;SDS011;2463;49.948;8.472;2023-07-13T13:45:57;84.90;;;3.27;;
4895;SDS011;2463;49.948;8.472;2023-07-13T13:48:29;82.20;;;3.00;;
4895;SDS011;2463;49.948;8.472;2023-07-13T13:50:58;81.83;;;3.10;;
4895;SDS011;2463;49.948;8.472;2023-07-13T13:53:26;84.70;;;3.13;;
4895;SDS011;2463;49.948;8.472;2023-07-13T13:55:54;84.63;;;3.10;;
4895;SDS011;2463;49.948;8.472;2023-07-13T13:58:20;82.20;;;2.93;;
4895;SDS011;2463;49.948;8.472;2023-07-13T14:00:47;82.70;;;3.20;;
4895;SDS011;2463;49.948;8.472;2023-07-13T14:03:18;80.70;;;3.10;;
4895;SDS011;2463;49.948;8.472;2023-07-13T14:05:45;82.00;;;3.10;;
4895;SDS011;2463;49.948;8.472;2023-07-13T14:08:14;83.17;;;2.90;;
4895;SDS011;2463;49.948;8.472;2023-07-13T14:10:43;81.17;;;2.77;;
4895;SDS011;2463;49.948;8.472;2023-07-13T14:13:19;82.30;;;3.03;;
4895;SDS011;2463;49.948;8.472;2023-07-13T14:15:49;87.73;;;3.37;;
4895;SDS011;2463;49.948;8.472;2023-07-13T14:18:17;81.80;;;2.70;;
4895;SDS011;2463;49.948;8.472;2023-07-13T14:20:45;85.27;;;4.87;;
4895;SDS011;2463;49.948;8.472;2023-07-13T14:23:13;81.70;;;3.03;;
4895;SDS011;2463;49.948;8.472;2023-07-13T14:25:41;85.20;;;3.00;;
4895;SDS011;2463;49.948;8.472;2023-07-13T14:28:23;81.10;;;2.90;;
4895;SDS011;2463;49.948;8.472;2023-07-13T14:30:52;81.07;;;2.70;;
4895;SDS011;2463;49.948;8.472;2023-07-13T14:33:21;82.97;;;2.93;;
4895;SDS011;2463;49.948;8.472;2023-07-13T14:35:49;81.87;;;3.10;;
4895;SDS011;2463;49.948;8.472;2023-07-13T14:38:18;82.00;;;3.10;;
4895;SDS011;2463;49.948;8.472;2023-07-13T14:40:46;81.93;;;2.97;;
4895;SDS011;2463;49.948;8.472;2023-07-13T14:43:13;80.70;;;2.83;;
4895;SDS011;2463;49.948;8.472;2023-07-13T14:45:42;80.60;;;2.70;;
4895;SDS011;2463;49.948;8.472;2023-07-13T14:48:13;81.50;;;2.80;;
4895;SDS011;2463;49.948;8.472;2023-07-13T14:50:46;82.93;;;3.50;;
4895;SDS011;2463;49.948;8.472;2023-07-13T14:53:19;86.93;;;3.10;;
4895;SDS011;2463;49.948;8.472;2023-07-13T14:55:45;82.90;;;3.37;;
4895;SDS011;2463;49.948;8.472;2023-07-13T14:58:12;82.77;;;3.23;;
4895;SDS011;2463;49.948;8.472;2023-07-13T15:00:40;81.40;;;3.13;;
4895;SDS011;2463;49.948;8.472;2023-07-13T15:03:14;80.50;;;2.83;;
4895;SDS011;2463;49.948;8.472;2023-07-13T15:05:47;82.50;;;3.30;;
4895;SDS011;2463;49.948;8.472;2023-07-13T15:08:15;86.27;;;3.33;;
4895;SDS011;2463;49.948;8.472;2023-07-13T15:10:42;81.50;;;3.00;;
4895;SDS011;2463;49.948;8.472;2023-07-13T15:13:15;84.83;;;3.73;;
4895;SDS011;2463;49.948;8.472;2023-07-13T15:15:49;82.37;;;3.10;;
4895;SDS011;2463;49.948;8.472;2023-07-13T15:18:18;83.30;;;3.07;;
4895;SDS011;2463;49.948;8.472;2023-07-13T15:20:47;80.70;;;3.03;;
4895;SDS011;2463;49.948;8.472;2023-07-13T15:23:16;81.10;;;2.93;;
4895;SDS011;2463;49.948;8.472;2023-07-13T15:25:44;82.77;;;3.00;;
4895;SDS011;2463;49.948;8.472;2023-07-13T15:28:12;83.77;;;2.90;;
4895;SDS011;2463;49.948;8.472;2023-07-13T15:30:41;90.10;;;3.40;;
4895;SDS011;2463;49.948;8.472;2023-07-13T15:35:52;82.37;;;3.30;;
4895;SDS011;2463;49.948;8.472;2023-07-13T15:38:21;85.47;;;3.20;;
4895;SDS011;2463;49.948;8.472;2023-07-13T15:40:50;83.00;;;3.07;;
4895;SDS011;2463;49.948;8.472;2023-07-13T15:43:18;81.90;;;3.10;;
4895;SDS011;2463;49.948;8.472;2023-07-13T15:45:45;87.80;;;3.53;;